Time;durP1;ratioP1;P1;durP2;ratioP2;P2;SDS_P1;SDS_P2;PMS_P1;PMS_P2;Temp;Humidity;BMP_temperature;BMP_pressure;BME280_temperature;BME280_humidity;BME280_pressure;Samples;Min_cycle;Max_cycle;Signal;HPM_P1;HPM_P2
2022/01/09 00:01:51;;;;;;;2.33;2.23;;;13.10;50.60;;;;;;5110328;28;20439;-83
2022/01/09 00:04:19;;;;;;;2.73;2.50;;;13.10;50.60;;;;;;5124374;27;20486;-83
2022/01/09 00:06:51;;;;;;;4.13;2.57;;;13.10;50.70;;;;;;5114011;28;20559;-84
2022/01/09 00:09:20;;;;;;;2.67;2.47;;;13.10;50.60;;;;;;5128183;27;20440;-83
2022/01/09 00:11:50;;;;;;;2.60;2.40;;;13.10;50.70;;;;;;5110011;28;20444;-82
2022/01/09 00:14:18;;;;;;;2.50;2.40;;;13.10;50.70;;;;;;5118542;28;20505;-83
2022/01/09 00:16:49;;;;;;;2.93;2.60;;;13.10;50.70;;;;;;5115281;28;20471;-82
2022/01/09 00:19:31;;;;;;;3.23;2.70;;;13.10;50.80;;;;;;5119696;28;20451;-82
2022/01/09 00:22:00;;;;;;;5.37;2.50;;;13.10;50.70;;;;;;5112496;28;20460;-83
2022/01/09 00:24:33;;;;;;;2.77;2.57;;;13.10;50.80;;;;;;5098510;28;20477;-83
2022/01/09 00:27:03;;;;;;;2.90;2.60;;;13.10;50.80;;;;;;5099455;28;20439;-83
2022/01/09 00:29:32;;;;;;;2.43;2.23;;;13.20;50.90;;;;;;5103802;28;20459;-81
2022/01/09 00:32:00;;;;;;;2.77;2.40;;;13.10;50.80;;;;;;5107196;28;20469;-82
2022/01/09 00:34:30;;;;;;;2.13;2.03;;;13.10;50.90;;;;;;5123539;28;20502;-81
2022/01/09 00:36:59;;;;;;;2.33;2.13;;;13.10;51.00;;;;;;5126303;27;20465;-82
2022/01/09 00:39:28;;;;;;;2.57;2.33;;;13.10;50.90;;;;;;5121367;28;20455;-83
2022/01/09 00:41:56;;;;;;;2.27;2.17;;;13.10;51.00;;;;;;5121083;28;20436;-82
2022/01/09 00:44:26;;;;;;;2.33;2.23;;;13.10;50.90;;;;;;5120111;28;20464;-82
2022/01/09 00:46:56;;;;;;;3.33;2.10;;;13.10;51.00;;;;;;5119787;28;20439;-82
2022/01/09 00:49:25;;;;;;;3.20;1.70;;;13.10;51.00;;;;;;5114946;28;20471;-82
2022/01/09 00:51:53;;;;;;;2.10;2.00;;;13.10;51.00;;;;;;5121087;28;20432;-82
2022/01/09 00:54:22;;;;;;;2.57;2.47;;;13.10;51.10;;;;;;5119480;28;20513;-82
2022/01/09 00:56:49;;;;;;;2.20;2.10;;;13.20;51.10;;;;;;5119942;28;20502;-82
2022/01/09 00:59:17;;;;;;;2.73;1.83;;;13.10;51.00;;;;;;5121354;28;20463;-82
2022/01/09 01:01:47;;;;;;;2.30;2.20;;;13.20;51.10;;;;;;5124943;28;20439;-83
2022/01/09 01:04:15;;;;;;;3.13;2.20;;;13.10;51.00;;;;;;5120701;28;20424;-83
2022/01/09 01:06:43;;;;;;;2.50;2.30;;;13.10;51.00;;;;;;5112884;28;20464;-82
2022/01/09 01:09:11;;;;;;;2.10;2.00;;;13.10;51.10;;;;;;5119629;28;20429;-82
2022/01/09 01:11:40;;;;;;;2.10;2.00;;;13.10;51.10;;;;;;5119101;28;20824;-82
2022/01/09 01:14:08;;;;;;;6.00;2.13;;;13.10;51.20;;;;;;5119032;28;20489;-81
2022/01/09 01:16:36;;;;;;;1.80;1.70;;;13.10;51.20;;;;;;5121172;28;20432;-82
2022/01/09 01:19:06;;;;;;;2.33;2.13;;;13.10;51.20;;;;;;5120640;28;20527;-81
2022/01/09 01:21:35;;;;;;;1.73;1.63;;;13.10;51.20;;;;;;5113755;28;20448;-80
2022/01/09 01:24:23;;;;;;;1.90;1.80;;;13.10;51.10;;;;;;5119114;28;20503;-81
2022/01/09 01:26:51;;;;;;;5.60;1.90;;;13.10;51.20;;;;;;5100152;28;20433;-81
2022/01/09 01:29:19;;;;;;;2.30;2.20;;;13.10;51.20;;;;;;5100007;28;20441;-82
2022/01/09 01:31:47;;;;;;;2.10;1.90;;;13.10;51.20;;;;;;5100228;28;20428;-81
2022/01/09 01:34:17;;;;;;;2.00;1.90;;;13.10;51.20;;;;;;5099371;28;20516;-81
2022/01/09 01:36:44;;;;;;;2.30;2.10;;;13.20;51.30;;;;;;5099244;28;20457;-82
2022/01/09 01:39:12;;;;;;;2.50;2.13;;;13.10;51.20;;;;;;5098243;28;20883;-81
2022/01/09 01:41:40;;;;;;;2.70;2.13;;;13.10;51.20;;;;;;5116615;28;21049;-82
2022/01/09 01:44:09;;;;;;;1.97;1.87;;;13.10;51.20;;;;;;5118027;28;20518;-82
2022/01/09 01:46:36;;;;;;;1.93;1.83;;;13.10;51.20;;;;;;5118324;28;20500;-82
2022/01/09 01:49:04;;;;;;;2.00;1.90;;;13.10;51.20;;;;;;5118216;28;20440;-82
2022/01/09 01:51:34;;;;;;;2.20;2.00;;;13.10;51.20;;;;;;5118561;28;20436;-82
2022/01/09 01:54:02;;;;;;;2.53;2.33;;;13.10;51.30;;;;;;5119808;28;20515;-82
2022/01/09 01:56:30;;;;;;;2.30;2.07;;;13.10;51.30;;;;;;5120554;28;20475;-82
2022/01/09 01:58:58;;;;;;;2.00;1.90;;;13.10;51.40;;;;;;5106182;28;20479;-82
2022/01/09 02:01:26;;;;;;;2.03;1.93;;;13.10;51.30;;;;;;5098396;28;20437;-82
2022/01/09 02:03:54;;;;;;;2.60;2.40;;;13.10;51.40;;;;;;5097887;28;20508;-82
2022/01/09 02:06:22;;;;;;;2.20;2.10;;;13.10;51.40;;;;;;5097987;28;20444;-82
2022/01/09 02:08:52;;;;;;;1.93;1.83;;;13.10;51.40;;;;;;5097923;28;20541;-82
2022/01/09 02:11:19;;;;;;;2.17;2.03;;;13.00;51.50;;;;;;5097329;28;20530;-82
2022/01/09 02:13:47;;;;;;;2.03;1.93;;;13.10;51.50;;;;;;5098091;28;20508;-82
2022/01/09 02:16:18;;;;;;;2.47;2.37;;;13.10;51.40;;;;;;5113409;28;20477;-82
2022/01/09 02:18:46;;;;;;;2.20;1.97;;;13.00;51.50;;;;;;5117493;28;20523;-82
2022/01/09 02:21:16;;;;;;;2.00;1.90;;;13.10;51.50;;;;;;5117903;28;20535;-82
2022/01/09 02:23:46;;;;;;;2.20;2.10;;;13.10;51.50;;;;;;5117685;28;20463;-82
2022/01/09 02:26:17;;;;;;;2.23;2.13;;;13.10;51.50;;;;;;5118017;28;20516;-82
2022/01/09 02:28:45;;;;;;;2.57;2.37;;;13.10;51.50;;;;;;5118111;28;20491;-82
2022/01/09 02:31:13;;;;;;;2.37;2.27;;;13.10;51.50;;;;;;5118486;28;20455;-82
2022/01/09 02:33:41;;;;;;;2.07;1.97;;;13.10;51.50;;;;;;5116591;28;21022;-82
2022/01/09 02:36:09;;;;;;;1.80;1.70;;;13.10;51.60;;;;;;5118403;28;20543;-82
2022/01/09 02:38:38;;;;;;;2.07;1.97;;;13.10;51.60;;;;;;5118147;28;20488;-82
2022/01/09 02:41:06;;;;;;;2.17;2.07;;;13.10;51.70;;;;;;5117697;28;20977;-82
2022/01/09 02:43:35;;;;;;;2.13;2.03;;;13.10;52.20;;;;;;5118304;28;21021;-82
2022/01/09 02:46:12;;;;;;;1.77;1.67;;;13.10;51.70;;;;;;5118290;28;20460;-82
2022/01/09 02:48:40;;;;;;;1.93;1.83;;;13.00;51.70;;;;;;5114509;28;20483;-82
2022/01/09 02:51:12;;;;;;;2.00;1.90;;;13.00;51.80;;;;;;5097976;28;20440;-82
2022/01/09 02:53:44;;;;;;;1.97;1.87;;;13.00;51.80;;;;;;5097638;28;20588;-82
2022/01/09 02:56:12;;;;;;;2.60;2.40;;;13.00;51.70;;;;;;5097327;28;20493;-82
2022/01/09 02:58:41;;;;;;;1.93;1.83;;;13.00;51.70;;;;;;5097506;28;20536;-82
2022/01/09 03:01:10;;;;;;;1.87;1.77;;;13.00;51.80;;;;;;5097356;28;20437;-82
2022/01/09 03:03:38;;;;;;;2.20;2.10;;;13.00;51.70;;;;;;5097099;28;20464;-82
2022/01/09 03:06:07;;;;;;;2.13;2.03;;;13.00;51.70;;;;;;5099944;28;20465;-82
2022/01/09 03:08:35;;;;;;;2.17;2.07;;;13.00;51.80;;;;;;5096298;28;20425;-82
2022/01/09 03:11:04;;;;;;;2.80;2.17;;;13.00;51.80;;;;;;5097216;28;20532;-82
2022/01/09 03:13:33;;;;;;;2.20;2.10;;;13.00;51.80;;;;;;5097167;28;20461;-82
2022/01/09 03:16:01;;;;;;;2.13;2.03;;;13.00;51.70;;;;;;5096907;28;20487;-82
2022/01/09 03:18:28;;;;;;;1.80;1.70;;;13.00;51.80;;;;;;5096397;28;20484;-82
2022/01/09 03:20:56;;;;;;;2.20;2.10;;;13.00;51.80;;;;;;5108872;28;20495;-82
2022/01/09 03:23:24;;;;;;;1.90;1.80;;;13.00;52.30;;;;;;5114877;28;20428;-82
2022/01/09 03:25:53;;;;;;;3.70;2.03;;;13.00;51.80;;;;;;5112777;28;20467;-82
2022/01/09 03:28:22;;;;;;;2.10;2.00;;;13.00;51.80;;;;;;5116048;28;20436;-82
2022/01/09 03:30:50;;;;;;;1.70;1.60;;;13.00;51.90;;;;;;5115602;28;20434;-82
2022/01/09 03:33:18;;;;;;;2.10;1.80;;;13.00;51.90;;;;;;5116213;28;20466;-82
2022/01/09 03:35:46;;;;;;;2.00;1.90;;;13.00;51.90;;;;;;5116810;28;20455;-82
2022/01/09 03:38:14;;;;;;;1.60;1.60;;;13.10;52.00;;;;;;5110436;28;20528;-82
2022/01/09 03:40:42;;;;;;;2.00;1.80;;;13.00;52.00;;;;;;5117074;28;20519;-82
2022/01/09 03:43:10;;;;;;;2.20;2.10;;;13.00;52.00;;;;;;5117809;28;20527;-82
2022/01/09 03:45:39;;;;;;;1.70;1.60;;;13.00;52.00;;;;;;5119811;28;20542;-82
2022/01/09 03:48:07;;;;;;;1.83;1.73;;;13.00;52.10;;;;;;5122307;28;20515;-82
2022/01/09 03:50:36;;;;;;;2.10;2.00;;;13.00;52.10;;;;;;5122709;28;20555;-82
2022/01/09 03:53:06;;;;;;;1.40;1.40;;;13.00;52.00;;;;;;5122917;28;20875;-82
2022/01/09 03:55:34;;;;;;;1.70;1.60;;;13.00;52.20;;;;;;5116972;28;20558;-82
2022/01/09 03:58:02;;;;;;;4.00;2.20;;;13.00;52.00;;;;;;5121786;28;20436;-82
2022/01/09 04:00:30;;;;;;;2.20;2.10;;;13.00;52.10;;;;;;5121977;28;20467;-82
2022/01/09 04:03:00;;;;;;;2.20;2.00;;;13.00;52.10;;;;;;5121482;28;20447;-83
2022/01/09 04:05:28;;;;;;;2.03;1.93;;;13.00;52.20;;;;;;5122410;28;20478;-82
2022/01/09 04:07:56;;;;;;;1.97;1.87;;;13.00;52.20;;;;;;5121687;28;20467;-82
2022/01/09 04:10:41;;;;;;;1.87;1.77;;;13.00;52.20;;;;;;5120841;28;20538;-82
2022/01/09 04:13:09;;;;;;;1.90;1.80;;;13.00;52.20;;;;;;5115605;28;20464;-82
2022/01/09 04:15:38;;;;;;;2.00;1.90;;;13.00;52.20;;;;;;5100640;28;20486;-82
2022/01/09 04:18:07;;;;;;;2.03;1.93;;;13.00;52.20;;;;;;5100375;28;20924;-82
2022/01/09 04:20:35;;;;;;;2.13;2.03;;;13.00;52.20;;;;;;5099725;28;20506;-82
2022/01/09 04:23:03;;;;;;;2.17;2.07;;;13.00;52.20;;;;;;5100288;28;20459;-82
2022/01/09 04:25:31;;;;;;;3.10;1.77;;;13.00;52.30;;;;;;5099660;28;20515;-82
2022/01/09 04:27:59;;;;;;;1.80;1.70;;;13.00;52.30;;;;;;5100126;28;20532;-82
2022/01/09 04:30:27;;;;;;;1.93;1.83;;;13.00;52.30;;;;;;5099945;28;20473;-82
2022/01/09 04:32:55;;;;;;;1.97;1.87;;;13.00;52.40;;;;;;5120238;28;20503;-82
2022/01/09 04:35:25;;;;;;;1.83;1.73;;;13.00;52.30;;;;;;5120428;28;20480;-82
2022/01/09 04:37:54;;;;;;;2.10;2.00;;;13.00;52.40;;;;;;5121177;28;20479;-82
2022/01/09 04:40:21;;;;;;;2.07;1.93;;;13.00;52.40;;;;;;5121983;28;20527;-82
2022/01/09 04:42:53;;;;;;;1.60;1.50;;;13.00;52.50;;;;;;5121202;28;20436;-83
2022/01/09 04:45:22;;;;;;;1.67;1.67;;;12.90;52.40;;;;;;5121798;28;20451;-82
2022/01/09 04:47:51;;;;;;;2.13;2.03;;;13.00;52.50;;;;;;5119754;28;20526;-82
2022/01/09 04:50:23;;;;;;;1.77;1.67;;;12.90;52.50;;;;;;5118518;28;20519;-82
2022/01/09 04:52:58;;;;;;;1.97;1.87;;;12.90;52.50;;;;;;5121127;28;20432;-82
2022/01/09 04:55:26;;;;;;;1.23;1.23;;;12.90;52.60;;;;;;5121711;28;20466;-82
2022/01/09 04:57:55;;;;;;;1.50;1.50;;;12.90;52.50;;;;;;5120626;28;20439;-82
2022/01/09 05:00:23;;;;;;;1.60;1.50;;;12.90;52.50;;;;;;5120481;28;21050;-82
2022/01/09 05:02:50;;;;;;;1.70;1.60;;;13.00;52.70;;;;;;5104764;28;20444;-82
2022/01/09 05:05:19;;;;;;;1.80;1.70;;;13.00;52.70;;;;;;5118436;28;20447;-82
2022/01/09 05:07:47;;;;;;;1.80;1.70;;;13.00;52.60;;;;;;5112428;28;20471;-82
2022/01/09 05:10:16;;;;;;;1.60;1.50;;;12.90;52.60;;;;;;5119960;28;20471;-82
2022/01/09 05:12:44;;;;;;;1.67;1.57;;;12.90;52.60;;;;;;5119716;28;20507;-82
2022/01/09 05:15:14;;;;;;;1.90;1.80;;;12.90;52.70;;;;;;5119360;28;20464;-82
2022/01/09 05:17:42;;;;;;;1.53;1.43;;;12.90;52.60;;;;;;5119817;28;20514;-82
2022/01/09 05:20:11;;;;;;;1.67;1.60;;;12.90;52.70;;;;;;5119966;28;20475;-82
2022/01/09 05:22:39;;;;;;;1.67;1.67;;;12.90;52.70;;;;;;5113369;28;20539;-82
2022/01/09 05:25:07;;;;;;;1.50;1.50;;;12.90;52.70;;;;;;5120154;28;20476;-82
2022/01/09 05:27:37;;;;;;;1.53;1.53;;;12.90;52.70;;;;;;5120070;28;20435;-82
2022/01/09 05:30:06;;;;;;;1.53;1.53;;;12.90;52.80;;;;;;5119578;28;20436;-82
2022/01/09 05:32:34;;;;;;;1.30;1.30;;;12.90;52.90;;;;;;5120035;28;20432;-82
2022/01/09 05:35:02;;;;;;;1.70;1.60;;;12.90;52.90;;;;;;5119498;28;20534;-82
2022/01/09 05:37:30;;;;;;;1.80;1.70;;;12.90;52.90;;;;;;5118838;28;20467;-82
2022/01/09 05:39:58;;;;;;;1.40;1.40;;;12.90;52.90;;;;;;5119989;27;20475;-82
2022/01/09 05:42:26;;;;;;;1.60;1.50;;;12.90;52.90;;;;;;5117928;28;20942;-82
2022/01/09 05:44:55;;;;;;;1.60;1.60;;;12.90;52.80;;;;;;5119909;28;20483;-82
2022/01/09 05:47:23;;;;;;;1.50;1.50;;;12.90;52.80;;;;;;5120461;28;20463;-82
2022/01/09 05:49:51;;;;;;;2.30;1.50;;;12.90;52.80;;;;;;5120189;28;20442;-82
2022/01/09 05:52:19;;;;;;;1.60;1.50;;;12.90;53.00;;;;;;5119249;28;20499;-82
2022/01/09 05:54:48;;;;;;;1.63;1.53;;;12.90;53.00;;;;;;5119834;28;20483;-82
2022/01/09 05:57:16;;;;;;;1.80;1.70;;;12.90;53.00;;;;;;5119002;28;20432;-82
2022/01/09 05:59:44;;;;;;;1.37;1.37;;;12.90;53.00;;;;;;5116539;28;20558;-82
2022/01/09 06:02:13;;;;;;;1.97;1.87;;;12.90;53.00;;;;;;5119768;28;20503;-83
2022/01/09 06:04:42;;;;;;;1.33;1.33;;;12.90;53.00;;;;;;5120034;28;21019;-82
2022/01/09 06:07:11;;;;;;;1.50;1.40;;;12.90;52.90;;;;;;5119606;28;20428;-82
2022/01/09 06:09:39;;;;;;;1.67;1.57;;;12.90;52.90;;;;;;5119461;28;20442;-82
2022/01/09 06:12:08;;;;;;;1.50;1.40;;;12.90;52.90;;;;;;5119200;28;20447;-82
2022/01/09 06:14:37;;;;;;;2.13;1.20;;;12.90;53.00;;;;;;5119199;28;20490;-82
2022/01/09 06:17:05;;;;;;;1.50;1.43;;;12.90;53.00;;;;;;5114063;28;20447;-82
2022/01/09 06:19:35;;;;;;;1.50;1.40;;;12.90;53.00;;;;;;5118085;28;20464;-82
2022/01/09 06:22:03;;;;;;;1.50;1.50;;;13.00;53.20;;;;;;5118328;28;20538;-82
2022/01/09 06:24:31;;;;;;;1.67;1.57;;;13.00;53.10;;;;;;5118551;28;20448;-82
2022/01/09 06:26:59;;;;;;;1.93;1.30;;;13.00;53.20;;;;;;5117230;28;20527;-82
2022/01/09 06:29:26;;;;;;;1.40;1.40;;;12.90;53.00;;;;;;5117702;28;20450;-82
2022/01/09 06:31:54;;;;;;;1.50;1.50;;;13.00;53.10;;;;;;5118357;28;20509;-82
2022/01/09 06:34:22;;;;;;;1.60;1.43;;;13.00;53.20;;;;;;5096990;28;20947;-82
2022/01/09 06:36:51;;;;;;;1.40;1.40;;;13.00;53.30;;;;;;5118507;28;20439;-82
2022/01/09 06:39:19;;;;;;;1.40;1.40;;;13.00;53.30;;;;;;5118001;28;20466;-82
2022/01/09 06:41:47;;;;;;;1.63;1.53;;;13.00;53.20;;;;;;5117572;28;20567;-82
2022/01/09 06:44:15;;;;;;;1.40;1.37;;;13.00;53.20;;;;;;5117875;28;20520;-82
2022/01/09 06:46:43;;;;;;;1.60;1.50;;;13.00;53.20;;;;;;5117778;28;20463;-82
2022/01/09 06:49:11;;;;;;;1.20;1.20;;;13.00;53.40;;;;;;5113247;28;20534;-82
2022/01/09 06:51:39;;;;;;;1.20;1.20;;;13.00;53.20;;;;;;5117504;28;20508;-82
2022/01/09 06:54:09;;;;;;;1.43;1.33;;;13.00;53.40;;;;;;5117903;28;20439;-82
2022/01/09 06:56:36;;;;;;;1.30;1.20;;;13.00;53.40;;;;;;5117401;28;20529;-82
2022/01/09 06:59:04;;;;;;;1.50;1.50;;;13.10;53.40;;;;;;5117586;28;20620;-82
2022/01/09 07:01:32;;;;;;;1.30;1.30;;;13.10;53.50;;;;;;5117176;28;20562;-82
2022/01/09 07:04:00;;;;;;;1.10;1.10;;;13.10;53.40;;;;;;5117477;28;20460;-82
2022/01/09 07:06:28;;;;;;;1.20;1.20;;;13.10;53.50;;;;;;5106014;28;20475;-82
2022/01/09 07:08:56;;;;;;;1.33;1.33;;;13.00;53.40;;;;;;5116641;28;20922;-82
2022/01/09 07:11:26;;;;;;;1.10;1.10;;;13.00;53.50;;;;;;5117844;28;20487;-82
2022/01/09 07:13:54;;;;;;;2.00;1.20;;;13.10;53.60;;;;;;5117048;28;20499;-83
2022/01/09 07:16:22;;;;;;;1.30;1.27;;;13.10;53.60;;;;;;5116730;28;20480;-82
2022/01/09 07:18:50;;;;;;;1.60;1.50;;;13.10;53.60;;;;;;5116852;28;20535;-81
2022/01/09 07:21:18;;;;;;;1.10;1.10;;;13.10;53.60;;;;;;5119984;28;20494;-82
2022/01/09 07:23:46;;;;;;;1.33;1.30;;;13.10;53.70;;;;;;5113868;28;20527;-82
2022/01/09 07:26:13;;;;;;;1.50;1.40;;;13.10;53.70;;;;;;5120645;28;20528;-82
2022/01/09 07:28:42;;;;;;;1.30;1.30;;;13.10;53.60;;;;;;5123511;28;20460;-81
2022/01/09 07:31:11;;;;;;;1.30;1.30;;;13.10;53.70;;;;;;5123956;28;20506;-82
2022/01/09 07:33:38;;;;;;;1.30;1.20;;;13.20;53.80;;;;;;5123284;28;20527;-82
2022/01/09 07:36:06;;;;;;;1.03;1.03;;;13.10;53.50;;;;;;5115855;28;20479;-82
2022/01/09 07:38:34;;;;;;;1.40;1.30;;;13.20;53.70;;;;;;5118141;28;20515;-82
2022/01/09 07:41:03;;;;;;;1.30;1.20;;;13.20;53.70;;;;;;5116624;28;20551;-81
2022/01/09 07:43:31;;;;;;;1.33;1.23;;;13.20;53.70;;;;;;5122344;28;20416;-82
2022/01/09 07:46:01;;;;;;;1.07;1.07;;;13.30;53.90;;;;;;5122364;28;20454;-81
2022/01/09 07:48:29;;;;;;;1.30;1.20;;;13.30;53.80;;;;;;5122892;28;20491;-82
2022/01/09 07:50:56;;;;;;;1.10;1.10;;;13.30;53.80;;;;;;5121204;28;20448;-81
2022/01/09 07:53:25;;;;;;;1.40;1.40;;;13.30;53.80;;;;;;5122190;28;20480;-81
2022/01/09 07:55:53;;;;;;;1.23;1.10;;;13.30;53.90;;;;;;5119791;28;20494;-81
2022/01/09 07:58:21;;;;;;;1.00;1.00;;;13.30;53.90;;;;;;5121499;28;20454;-81
2022/01/09 08:00:49;;;;;;;1.00;1.00;;;13.40;53.90;;;;;;5121551;28;20559;-81
2022/01/09 08:03:18;;;;;;;1.00;1.00;;;13.40;54.00;;;;;;5121505;28;20978;-81
2022/01/09 08:05:46;;;;;;;1.17;1.07;;;13.40;53.90;;;;;;5120072;28;20455;-81
2022/01/09 08:08:14;;;;;;;1.20;1.20;;;13.40;53.90;;;;;;5120659;28;20527;-82
2022/01/09 08:10:42;;;;;;;1.37;1.27;;;13.40;53.90;;;;;;5120565;28;20492;-81
2022/01/09 08:13:10;;;;;;;1.33;1.30;;;13.50;54.00;;;;;;5121837;28;20424;-81
2022/01/09 08:15:38;;;;;;;1.00;1.00;;;13.50;54.00;;;;;;5117863;28;20470;-81
2022/01/09 08:18:06;;;;;;;1.20;1.20;;;13.50;54.00;;;;;;5121921;28;20458;-81
2022/01/09 08:20:35;;;;;;;1.63;1.47;;;13.50;54.20;;;;;;5112452;28;20444;-81
2022/01/09 08:23:03;;;;;;;2.13;1.30;;;13.50;54.00;;;;;;5118453;28;20431;-81
2022/01/09 08:25:35;;;;;;;1.30;1.20;;;13.50;54.00;;;;;;5121162;28;20452;-82
2022/01/09 08:28:04;;;;;;;1.10;1.10;;;13.60;54.20;;;;;;5120259;28;20519;-81
2022/01/09 08:30:32;;;;;;;0.97;0.97;;;13.60;54.10;;;;;;5120000;28;20507;-82
2022/01/09 08:33:00;;;;;;;1.50;1.40;;;13.60;54.10;;;;;;5115481;28;20456;-81
2022/01/09 08:35:28;;;;;;;1.20;1.20;;;13.60;54.10;;;;;;5120054;28;20511;-82
2022/01/09 08:37:57;;;;;;;1.40;1.20;;;13.60;54.10;;;;;;5120476;28;20439;-81
2022/01/09 08:40:25;;;;;;;1.17;1.13;;;13.70;54.20;;;;;;5119603;28;20519;-81
2022/01/09 08:42:54;;;;;;;1.50;1.40;;;13.70;54.20;;;;;;5119048;28;20570;-81
2022/01/09 08:45:23;;;;;;;1.13;1.10;;;13.70;54.20;;;;;;5115455;28;20447;-81
2022/01/09 08:47:51;;;;;;;2.00;1.33;;;13.70;54.20;;;;;;5116145;28;20448;-81
2022/01/09 08:50:20;;;;;;;1.23;1.13;;;13.70;54.20;;;;;;5119318;28;20497;-82
2022/01/09 08:52:48;;;;;;;0.90;0.90;;;13.70;54.20;;;;;;5122253;28;20432;-82
2022/01/09 08:55:18;;;;;;;1.30;1.30;;;13.80;54.20;;;;;;5122320;28;20496;-82
2022/01/09 08:57:46;;;;;;;2.50;1.27;;;13.70;54.10;;;;;;5121126;28;20500;-81
2022/01/09 09:00:15;;;;;;;1.93;1.37;;;13.70;54.10;;;;;;5120029;28;20456;-82
2022/01/09 09:02:43;;;;;;;1.30;1.20;;;13.80;54.20;;;;;;5117567;28;20492;-81
2022/01/09 09:05:12;;;;;;;1.40;1.30;;;13.80;54.20;;;;;;5118112;28;20496;-82
2022/01/09 09:07:40;;;;;;;1.50;1.40;;;13.80;54.30;;;;;;5117155;28;20440;-81
2022/01/09 09:10:08;;;;;;;1.20;1.20;;;13.80;54.30;;;;;;5120966;28;20515;-82
2022/01/09 09:12:37;;;;;;;1.03;0.93;;;13.80;54.30;;;;;;5122059;28;20451;-82
2022/01/09 09:15:07;;;;;;;1.20;1.10;;;13.80;54.30;;;;;;5118880;28;20448;-81
2022/01/09 09:17:35;;;;;;;1.50;1.40;;;13.80;54.20;;;;;;5119251;28;20470;-81
2022/01/09 09:20:05;;;;;;;1.20;1.10;;;13.90;54.30;;;;;;5117165;28;20440;-81
2022/01/09 09:22:33;;;;;;;1.20;1.10;;;13.90;54.40;;;;;;5117150;28;20471;-83
2022/01/09 09:25:00;;;;;;;1.33;1.23;;;13.90;54.30;;;;;;5121514;28;20496;-83
2022/01/09 09:27:32;;;;;;;1.43;1.10;;;13.90;54.40;;;;;;5120164;28;20546;-81
2022/01/09 09:30:02;;;;;;;3.53;1.60;;;13.90;54.30;;;;;;5118840;28;20450;-81
2022/01/09 09:32:31;;;;;;;1.63;1.10;;;13.90;54.30;;;;;;5119292;28;20420;-82
2022/01/09 09:34:59;;;;;;;1.30;1.20;;;13.90;54.30;;;;;;5120840;28;20493;-82
2022/01/09 09:37:28;;;;;;;1.30;1.20;;;13.90;54.30;;;;;;5119185;28;20457;-81
2022/01/09 09:39:56;;;;;;;1.03;1.03;;;14.00;54.40;;;;;;5120232;28;20493;-82
2022/01/09 09:42:24;;;;;;;2.13;1.40;;;14.00;54.50;;;;;;5118950;28;20463;-81
2022/01/09 09:44:52;;;;;;;2.27;1.50;;;14.00;54.40;;;;;;5116618;28;20455;-82
2022/01/09 09:47:22;;;;;;;2.27;1.23;;;14.00;54.50;;;;;;5116457;28;20488;-82
2022/01/09 09:49:50;;;;;;;1.40;1.30;;;14.00;54.30;;;;;;5116390;28;20439;-81
2022/01/09 09:52:19;;;;;;;4.20;1.50;;;14.10;54.50;;;;;;5115266;28;20431;-81
2022/01/09 09:54:52;;;;;;;2.10;1.20;;;14.00;54.30;;;;;;5115578;28;20460;-81
2022/01/09 09:57:21;;;;;;;2.53;1.50;;;14.10;54.40;;;;;;5118291;28;20509;-82
2022/01/09 09:59:48;;;;;;;1.57;1.17;;;14.10;54.50;;;;;;5119819;28;20479;-81
2022/01/09 10:02:17;;;;;;;2.70;1.10;;;14.10;54.60;;;;;;5119816;28;20533;-81
2022/01/09 10:05:00;;;;;;;2.80;1.53;;;14.10;54.50;;;;;;5116529;28;20540;-82
2022/01/09 10:07:28;;;;;;;1.50;1.20;;;14.10;54.60;;;;;;5116244;28;21073;-82
2022/01/09 10:09:57;;;;;;;3.37;1.40;;;14.10;54.50;;;;;;5117077;28;20509;-82
2022/01/09 10:12:26;;;;;;;2.50;1.40;;;14.10;54.50;;;;;;5119954;28;20515;-82
2022/01/09 10:14:55;;;;;;;1.57;1.47;;;14.20;54.50;;;;;;5115474;28;20531;-81
2022/01/09 10:17:24;;;;;;;4.20;2.13;;;14.20;54.50;;;;;;5116278;28;20420;-82
2022/01/09 10:19:54;;;;;;;1.70;1.60;;;14.20;54.50;;;;;;5120958;28;20432;-82
2022/01/09 10:22:36;;;;;;;2.00;1.17;;;14.20;54.40;;;;;;5118581;28;20493;-82
2022/01/09 10:25:21;;;;;;;1.53;1.43;;;14.20;54.50;;;;;;5117976;28;20455;-82
2022/01/09 10:27:50;;;;;;;2.40;1.40;;;14.20;54.50;;;;;;5119192;28;20420;-82
2022/01/09 10:30:18;;;;;;;1.90;1.43;;;14.20;54.40;;;;;;5116801;28;20796;-82
2022/01/09 10:32:46;;;;;;;2.80;1.30;;;14.30;54.60;;;;;;5118740;28;20499;-82
2022/01/09 10:35:16;;;;;;;2.10;1.47;;;14.30;54.60;;;;;;5119423;28;20467;-83
2022/01/09 10:37:47;;;;;;;3.03;1.53;;;14.20;54.50;;;;;;5119297;28;20465;-82
2022/01/09 10:40:20;;;;;;;4.60;1.50;;;14.30;54.70;;;;;;5118402;28;20431;-82
2022/01/09 10:43:01;;;;;;;1.50;1.40;;;14.30;54.60;;;;;;5118331;28;20463;-82
2022/01/09 10:45:30;;;;;;;3.77;1.40;;;14.30;54.60;;;;;;5118927;28;20495;-80
2022/01/09 10:48:03;;;;;;;2.70;1.30;;;14.30;54.60;;;;;;5124963;28;20459;-82
2022/01/09 10:50:32;;;;;;;2.37;1.47;;;14.40;54.70;;;;;;5125206;28;20405;-82
2022/01/09 10:53:29;;;;;;;2.00;1.30;;;14.40;54.70;;;;;;5118316;28;20454;-81
2022/01/09 10:56:08;;;;;;;2.13;1.10;;;14.40;54.60;;;;;;5073509;28;20460;-82
2022/01/09 10:58:39;;;;;;;2.70;1.77;;;14.40;54.80;;;;;;5122579;28;20447;-81
2022/01/09 11:01:15;;;;;;;4.87;1.50;;;14.40;54.70;;;;;;5122059;28;20507;-80
2022/01/09 11:03:45;;;;;;;5.17;1.30;;;14.40;54.70;;;;;;5099132;28;20464;-79
2022/01/09 11:06:14;;;;;;;2.27;1.50;;;14.40;54.70;;;;;;5099334;28;20448;-80
2022/01/09 11:08:43;;;;;;;2.07;1.70;;;14.40;54.70;;;;;;5099159;28;20429;-80
2022/01/09 11:11:20;;;;;;;2.57;2.03;;;14.40;54.80;;;;;;5098865;28;20441;-80
2022/01/09 11:13:49;;;;;;;5.93;1.63;;;14.50;54.80;;;;;;5099148;28;20412;-80
2022/01/09 11:16:36;;;;;;;3.87;1.67;;;14.50;54.80;;;;;;5098854;28;21013;-80
2022/01/09 11:19:07;;;;;;;7.33;1.60;;;14.50;54.90;;;;;;5111022;28;20493;-80
2022/01/09 11:21:35;;;;;;;3.67;1.70;;;14.50;54.80;;;;;;5119912;28;20472;-80
2022/01/09 11:24:38;;;;;;;2.77;1.90;;;14.50;55.00;;;;;;5119672;28;20463;-80
2022/01/09 11:27:13;;;;;;;2.03;1.40;;;14.50;54.80;;;;;;5119572;28;20416;-80
2022/01/09 11:29:44;;;;;;;4.57;1.70;;;14.50;54.90;;;;;;5117030;28;20470;-80
2022/01/09 11:32:20;;;;;;;3.17;1.50;;;14.50;54.90;;;;;;5119729;28;20440;-80
2022/01/09 11:34:52;;;;;;;2.10;1.60;;;14.50;55.00;;;;;;5119266;28;20579;-80
2022/01/09 11:37:25;;;;;;;3.70;1.93;;;14.50;55.00;;;;;;5119252;28;20578;-80
2022/01/09 11:39:54;;;;;;;7.73;1.87;;;14.60;55.10;;;;;;5119489;28;20419;-80
2022/01/09 11:42:22;;;;;;;2.60;1.50;;;14.60;55.10;;;;;;5119989;28;20514;-80
2022/01/09 11:44:51;;;;;;;3.63;1.97;;;14.60;55.00;;;;;;5119665;28;20479;-80
2022/01/09 11:47:19;;;;;;;2.50;1.80;;;14.60;55.00;;;;;;5119022;28;20507;-80
2022/01/09 11:50:06;;;;;;;4.93;1.77;;;14.60;55.10;;;;;;5117931;28;20454;-80
2022/01/09 11:52:34;;;;;;;4.10;1.70;;;14.60;55.10;;;;;;5117145;28;20450;-80
2022/01/09 11:55:05;;;;;;;4.07;1.90;;;14.60;55.10;;;;;;5118340;27;20534;-80
2022/01/09 11:57:37;;;;;;;6.83;1.77;;;14.60;55.10;;;;;;5118627;28;20420;-79
2022/01/09 12:00:05;;;;;;;2.47;1.60;;;14.60;55.30;;;;;;5114966;28;20532;-80
2022/01/09 12:02:35;;;;;;;3.10;1.80;;;14.60;55.20;;;;;;5118547;28;20426;-80
2022/01/09 12:05:05;;;;;;;4.63;1.50;;;14.60;55.20;;;;;;5118104;28;20907;-80
2022/01/09 12:08:09;;;;;;;9.00;2.43;;;14.60;55.10;;;;;;5118528;28;20530;-81
2022/01/09 12:10:51;;;;;;;6.77;2.57;;;15.10;63.10;;;;;;5120981;28;20435;-83
2022/01/09 12:13:50;;;;;;;12.90;3.10;;;16.20;65.40;;;;;;5121395;28;20479;-81
2022/01/09 12:16:47;;;;;;;23.83;3.67;;;16.70;63.00;;;;;;5123230;28;20494;-80
2022/01/09 12:19:48;;;;;;;16.80;3.80;;;17.00;63.90;;;;;;5119171;28;20452;-81
2022/01/09 12:22:19;;;;;;;23.37;6.40;;;16.90;62.30;;;;;;5121282;28;20451;-83
2022/01/09 12:24:48;;;;;;;33.27;6.83;;;16.70;62.20;;;;;;5118242;28;20564;-83
2022/01/09 12:27:44;;;;;;;11.50;4.60;;;16.40;60.40;;;;;;5122511;28;20458;-83
2022/01/09 12:30:44;;;;;;;18.83;4.00;;;16.10;58.60;;;;;;5126385;28;20436;-82
2022/01/09 12:33:15;;;;;;;11.20;3.77;;;15.60;59.40;;;;;;5130786;28;20416;-83
2022/01/09 12:35:45;;;;;;;21.87;3.53;;;15.30;59.60;;;;;;5128230;28;20452;-83
2022/01/09 12:38:17;;;;;;;13.43;3.40;;;15.10;60.20;;;;;;5131477;28;20432;-82
2022/01/09 12:40:45;;;;;;;12.40;3.43;;;14.90;59.70;;;;;;5134174;28;20411;-81
2022/01/09 12:43:13;;;;;;;15.83;3.40;;;14.80;60.80;;;;;;5129670;28;20471;-82
2022/01/09 12:45:44;;;;;;;21.53;4.30;;;14.80;60.40;;;;;;5133830;28;20460;-82
2022/01/09 12:48:19;;;;;;;12.00;2.70;;;14.70;60.10;;;;;;5131783;28;20424;-83
2022/01/09 12:50:48;;;;;;;13.90;3.00;;;14.50;60.30;;;;;;5125529;28;20516;-83
2022/01/09 12:53:17;;;;;;;17.93;4.63;;;14.40;61.10;;;;;;5124978;27;20459;-83
2022/01/09 12:55:55;;;;;;;20.83;4.00;;;14.10;60.40;;;;;;5119834;28;20451;-83
2022/01/09 12:58:24;;;;;;;17.80;4.03;;;14.00;62.60;;;;;;5115871;28;20527;-84
2022/01/09 13:00:53;;;;;;;13.70;3.80;;;14.20;62.80;;;;;;5101912;28;20438;-83